KQEN

Daegwallyeong Rw

Daegwallyeong Rw, South Korea
METAR KQEN 200850Z AUTO 25008G14KT 9999 FEW065 23/09 A2966 RMK A02 TSNO
Observed Flight Rules
Jun-20 @ 08:50 UTC (20 minutes ago) Visual Flight Rules
Wind Visibility Clouds
250° at 8 knots
 Gusting to 14 knots
10,000+ meters
  • Few at 6,500' AGL
Temperatures Readings
Current 23°C / 73°F
Dewpoint 9°C / 48°F
Humidity 41%
Altimeter 29.66" Hg
Pressure 1004 hPa
METAR KQEN 200850Z AUTO 25008G14KT 9999 FEW065 23/09 A2966 RMK A02 TSNO
Observed Flight Rules
Jun-20 @ 08:50 UTC
(20 minutes ago)
VFR
Wind Visibility
250° at 8 knots
 Gusting to 14 knots
10,000+ meters
Clouds
  • Few at 6,500' AGL
Temperature Dewpoint
23°C / 73°F 9°C / 48°F
Humidity Altimeter Pressure
41% 29.66" Hg 1004 hPa